createdAt,value
2019-04-21T00:02:06.083Z,8.70
2019-04-21T00:04:48.324Z,7.50
2019-04-21T00:07:26.476Z,8.63
2019-04-21T00:12:22.775Z,8.37
2019-04-21T00:14:46.194Z,8.60
2019-04-21T00:17:11.487Z,8.63
2019-04-21T00:19:44.643Z,8.07
2019-04-21T00:22:22.910Z,9.53
2019-04-21T00:24:58.189Z,8.50
2019-04-21T00:27:31.009Z,8.93
2019-04-21T00:29:58.757Z,9.10
2019-04-21T00:32:25.342Z,8.33
2019-04-21T00:34:48.435Z,9.00
2019-04-21T00:37:21.054Z,7.77
2019-04-21T00:40:03.722Z,9.10
2019-04-21T00:42:31.538Z,9.37
2019-04-21T00:45:00.759Z,9.00
2019-04-21T00:47:30.629Z,8.77
2019-04-21T00:50:07.535Z,9.03
2019-04-21T00:55:38.557Z,8.33
2019-04-21T00:58:15.991Z,9.03
2019-04-21T01:00:32.588Z,9.37
2019-04-21T01:03:09.387Z,8.77
2019-04-21T01:05:42.811Z,8.57
2019-04-21T01:08:06.098Z,8.27
2019-04-21T01:10:24.155Z,9.77
2019-04-21T01:13:13.954Z,8.93
2019-04-21T01:15:45.082Z,9.20
2019-04-21T01:18:14.294Z,8.70
2019-04-21T01:20:18.161Z,9.03
2019-04-21T01:22:45.860Z,9.50
2019-04-21T01:25:27.174Z,8.03
2019-04-21T01:27:59.347Z,8.70
2019-04-21T01:30:39.033Z,8.87
2019-04-21T01:33:09.492Z,7.80
2019-04-21T01:35:34.671Z,8.57
2019-04-21T01:38:07.091Z,9.60
2019-04-21T01:40:43.114Z,10.13
2019-04-21T01:43:07.711Z,8.73
2019-04-21T01:45:31.801Z,7.97
2019-04-21T01:48:01.338Z,8.83
2019-04-21T01:50:34.431Z,8.93
2019-04-21T01:53:15.464Z,8.63
2019-04-21T01:56:04.823Z,8.40
2019-04-21T01:58:27.057Z,9.03
2019-04-21T02:01:02.074Z,8.60
2019-04-21T02:06:13.692Z,9.07
2019-04-21T02:08:36.507Z,8.53
2019-04-21T02:11:11.284Z,8.77
2019-04-21T02:13:48.642Z,8.80
2019-04-21T02:16:11.309Z,8.97
2019-04-21T02:18:33.926Z,9.20
2019-04-21T02:20:55.315Z,7.87
2019-04-21T02:23:46.800Z,8.23
2019-04-21T02:26:09.710Z,7.83
2019-04-21T02:28:50.440Z,8.80
2019-04-21T02:31:24.796Z,7.97
2019-04-21T02:33:55.788Z,9.00
2019-04-21T02:41:18.320Z,8.63
2019-04-21T02:43:52.465Z,8.03
2019-04-21T02:46:23.871Z,8.40
2019-04-21T02:48:56.122Z,7.93
2019-04-21T02:51:21.877Z,8.00
2019-04-21T02:54:34.058Z,7.27
2019-04-21T02:56:18.386Z,9.17
2019-04-21T03:04:47.515Z,7.67
2019-04-21T03:07:34.438Z,8.50
2019-04-21T03:11:04.782Z,7.90
2019-04-21T03:12:28.624Z,8.17
2019-04-21T03:15:18.214Z,7.80
2019-04-21T03:27:40.155Z,8.60
2019-04-21T03:29:59.226Z,8.70
2019-04-21T03:33:08.437Z,9.03
2019-04-21T03:35:34.003Z,8.63
2019-04-21T03:42:40.266Z,8.73
2019-04-21T03:52:48.256Z,8.00
2019-04-21T03:55:51.456Z,8.10
2019-04-21T03:58:05.109Z,8.33
2019-04-21T04:06:09.897Z,8.37
2019-04-21T04:09:14.281Z,9.80
2019-04-21T04:21:44.240Z,9.63
2019-04-21T04:24:12.997Z,7.80
2019-04-21T04:26:33.542Z,8.03
2019-04-21T04:29:06.284Z,8.40
2019-04-21T04:34:12.665Z,7.77
2019-04-21T04:36:53.288Z,8.23
2019-04-21T04:42:19.408Z,7.87
2019-04-21T04:44:51.910Z,9.07
2019-04-21T04:47:05.529Z,8.37
2019-04-21T04:49:40.508Z,7.63
2019-04-21T04:52:10.109Z,8.43
2019-04-21T04:54:38.724Z,8.57
2019-04-21T04:57:09.979Z,7.70
2019-04-21T05:04:37.093Z,8.40
2019-04-21T05:12:03.602Z,8.10
2019-04-21T05:14:41.042Z,8.57
2019-04-21T05:17:02.247Z,9.37
2019-04-21T05:19:41.519Z,9.00
2019-04-21T05:22:12.299Z,8.07
2019-04-21T05:24:28.979Z,8.17
2019-04-21T05:26:56.234Z,8.57
2019-04-21T05:29:29.575Z,8.60
2019-04-21T05:32:17.176Z,8.90
2019-04-21T05:34:55.813Z,9.27
2019-04-21T05:37:35.110Z,8.60
2019-04-21T05:40:05.801Z,8.10
2019-04-21T05:42:34.169Z,8.63
2019-04-21T05:50:40.323Z,9.17
2019-04-21T05:53:20.284Z,9.57
2019-04-21T05:55:49.169Z,9.40
2019-04-21T05:58:14.613Z,8.83
2019-04-21T06:01:06.071Z,9.37
2019-04-21T06:03:29.306Z,9.83
2019-04-21T06:06:00.391Z,10.50
2019-04-21T06:08:27.153Z,10.43
2019-04-21T06:10:52.313Z,9.45
2019-04-21T06:13:27.945Z,11.08
2019-04-21T06:15:56.502Z,10.55
2019-04-21T06:18:36.415Z,10.58
2019-04-21T06:21:00.410Z,11.18
2019-04-21T06:23:35.084Z,11.40
2019-04-21T06:26:26.868Z,11.65
2019-04-21T06:28:33.698Z,11.48
2019-04-21T06:33:39.447Z,12.45
2019-04-21T06:36:23.523Z,11.83
2019-04-21T06:39:12.107Z,11.55
2019-04-21T06:44:01.773Z,11.05
2019-04-21T06:46:25.911Z,11.40
2019-04-21T06:48:55.760Z,12.35
2019-04-21T06:51:27.322Z,12.25
2019-04-21T06:54:01.715Z,12.00
2019-04-21T06:56:30.965Z,11.87
2019-04-21T06:59:00.693Z,11.30
2019-04-21T07:01:31.268Z,12.37
2019-04-21T07:04:05.724Z,11.97
2019-04-21T07:06:32.440Z,11.63
2019-04-21T07:09:12.640Z,11.80
2019-04-21T07:11:26.727Z,11.50
2019-04-21T07:14:13.410Z,11.80
2019-04-21T07:16:33.407Z,12.60
2019-04-21T07:19:09.246Z,11.90
2019-04-21T07:21:29.372Z,11.87
2019-04-21T07:23:59.156Z,11.50
2019-04-21T07:26:34.497Z,12.40
2019-04-21T07:29:01.747Z,11.77
2019-04-21T07:31:31.904Z,11.60
2019-04-21T07:36:32.362Z,12.00
2019-04-21T07:38:56.808Z,12.57
2019-04-21T07:41:18.653Z,13.07
2019-04-21T07:43:57.113Z,12.37
2019-04-21T07:46:25.423Z,12.93
2019-04-21T07:49:08.046Z,12.43
2019-04-21T07:51:52.165Z,13.47
2019-04-21T07:54:23.254Z,12.60
2019-04-21T07:56:34.932Z,12.53
2019-04-21T07:59:20.376Z,13.77
2019-04-21T08:01:53.193Z,13.70
2019-04-21T08:04:38.905Z,13.43
2019-04-21T08:06:51.915Z,14.00
2019-04-21T08:09:24.565Z,13.00
2019-04-21T08:11:48.809Z,12.93
2019-04-21T08:14:23.665Z,13.67
2019-04-21T08:16:51.178Z,12.53
2019-04-21T08:19:18.635Z,12.47
2019-04-21T08:24:24.161Z,13.50
2019-04-21T08:26:51.571Z,12.97
2019-04-21T08:29:25.570Z,13.30
2019-04-21T08:31:56.178Z,13.60
2019-04-21T08:34:25.516Z,13.57
2019-04-21T08:36:55.328Z,13.50
2019-04-21T08:39:24.129Z,13.83
2019-04-21T08:41:46.911Z,14.40
2019-04-21T08:44:24.351Z,13.07
2019-04-21T08:46:49.203Z,13.70
2019-04-21T08:49:17.350Z,14.37
2019-04-21T08:51:50.475Z,13.97
2019-04-21T08:54:21.479Z,14.93
2019-04-21T08:57:08.136Z,13.73
2019-04-21T09:00:03.217Z,14.03
2019-04-21T09:02:37.244Z,13.33
2019-04-21T09:05:07.537Z,14.70
2019-04-21T09:07:39.627Z,14.27
2019-04-21T09:10:10.796Z,13.97
2019-04-21T09:12:43.234Z,14.03
2019-04-21T09:15:13.861Z,14.17
2019-04-21T09:17:33.016Z,14.23
2019-04-21T09:20:17.212Z,13.33
2019-04-21T09:22:41.582Z,13.20
2019-04-21T09:25:09.071Z,14.18
2019-04-21T09:27:42.083Z,15.00
2019-04-21T09:29:59.408Z,14.75
2019-04-21T09:32:27.205Z,15.45
2019-04-21T09:34:52.986Z,16.05
2019-04-21T09:37:32.994Z,14.90
2019-04-21T09:39:53.549Z,15.60
2019-04-21T09:42:30.636Z,16.40
2019-04-21T09:44:53.842Z,15.38
2019-04-21T09:47:22.666Z,16.10
2019-04-21T09:49:49.748Z,17.20
2019-04-21T09:52:23.184Z,15.80
2019-04-21T09:54:56.453Z,15.23
2019-04-21T09:57:27.406Z,16.05
2019-04-21T09:59:53.872Z,15.68
2019-04-21T10:02:25.691Z,16.05
2019-04-21T10:04:46.585Z,16.40
2019-04-21T10:07:26.360Z,16.00
2019-04-21T10:09:52.411Z,17.05
2019-04-21T10:12:20.345Z,16.90
2019-04-21T10:14:47.898Z,16.48
2019-04-21T10:17:41.852Z,16.50
2019-04-21T10:20:11.656Z,16.02
2019-04-21T10:22:42.076Z,16.23
2019-04-21T10:25:10.482Z,15.93
2019-04-21T10:27:39.304Z,16.00
2019-04-21T10:30:08.204Z,16.87
2019-04-21T10:32:38.646Z,17.00
2019-04-21T10:35:07.442Z,15.83
2019-04-21T10:37:48.727Z,18.25
2019-04-21T10:40:07.542Z,16.17
2019-04-21T10:42:35.478Z,17.05
2019-04-21T10:45:05.093Z,16.42
2019-04-21T10:47:32.669Z,17.17
2019-04-21T10:50:00.490Z,17.40
2019-04-21T10:52:56.660Z,17.48
2019-04-21T10:55:40.213Z,16.35
2019-04-21T10:58:09.455Z,16.37
2019-04-21T11:00:39.855Z,16.15
2019-04-21T11:03:31.028Z,16.07
2019-04-21T11:06:01.338Z,16.67
2019-04-21T11:08:34.158Z,17.10
2019-04-21T11:10:58.604Z,16.62
2019-04-21T11:13:26.436Z,15.72
2019-04-21T11:15:55.186Z,14.87
2019-04-21T11:18:23.962Z,15.45
2019-04-21T11:20:51.491Z,14.58
2019-04-21T11:23:21.165Z,15.23
2019-04-21T11:25:49.883Z,14.65
2019-04-21T11:28:18.534Z,14.90
2019-04-21T11:30:46.674Z,13.90
2019-04-21T11:33:15.389Z,15.03
2019-04-21T11:35:43.556Z,13.32
2019-04-21T11:38:20.408Z,13.80
2019-04-21T11:40:45.545Z,14.40
2019-04-21T11:43:17.745Z,13.35
2019-04-21T11:45:46.316Z,13.08
2019-04-21T11:48:39.956Z,13.28
2019-04-21T11:51:09.243Z,13.35
2019-04-21T11:53:37.304Z,14.15
2019-04-21T11:56:08.923Z,13.95
2019-04-21T11:58:36.627Z,12.37
2019-04-21T12:01:05.591Z,12.85
2019-04-21T12:03:35.863Z,14.07
2019-04-21T12:06:03.744Z,13.43
2019-04-21T12:08:40.197Z,12.65
2019-04-21T12:11:00.931Z,12.00
2019-04-21T12:13:28.419Z,12.55
2019-04-21T12:15:59.054Z,10.82
2019-04-21T12:18:29.676Z,9.65
2019-04-21T12:20:57.542Z,10.43
2019-04-21T12:23:26.753Z,10.50
2019-04-21T12:25:54.788Z,10.95
2019-04-21T12:28:23.774Z,10.65
2019-04-21T12:30:53.786Z,11.50
2019-04-21T12:33:43.878Z,11.18
2019-04-21T12:36:13.837Z,10.93
2019-04-21T12:38:48.400Z,11.45
2019-04-21T12:41:10.697Z,12.23
2019-04-21T12:43:38.938Z,11.70
2019-04-21T12:46:07.694Z,11.38
2019-04-21T12:48:38.019Z,11.60
2019-04-21T12:51:08.205Z,10.85
2019-04-21T12:53:35.976Z,11.65
2019-04-21T12:56:05.759Z,11.55
2019-04-21T12:58:33.521Z,11.68
2019-04-21T13:01:01.400Z,11.18
2019-04-21T13:03:30.413Z,10.45
2019-04-21T13:05:58.176Z,10.43
2019-04-21T13:08:27.310Z,10.70
2019-04-21T13:10:56.235Z,11.35
2019-04-21T13:13:28.052Z,11.80
2019-04-21T13:15:58.792Z,11.25
2019-04-21T13:18:27.027Z,10.70
2019-04-21T13:20:58.921Z,10.80
2019-04-21T13:23:27.086Z,10.48
2019-04-21T13:25:57.962Z,9.25
2019-04-21T13:28:25.415Z,9.75
2019-04-21T13:30:53.944Z,9.65
2019-04-21T13:33:22.856Z,9.35
2019-04-21T13:35:50.912Z,9.45
2019-04-21T13:38:29.071Z,8.50
2019-04-21T13:41:22.835Z,10.70
2019-04-21T13:43:39.155Z,10.63
2019-04-21T13:46:08.071Z,9.75
2019-04-21T13:48:36.882Z,9.10
2019-04-21T13:51:07.029Z,10.20
2019-04-21T13:53:37.904Z,9.88
2019-04-21T13:56:08.917Z,10.60
2019-04-21T13:58:42.157Z,10.75
2019-04-21T14:01:09.726Z,10.60
2019-04-21T14:03:37.689Z,11.25
2019-04-21T14:06:06.731Z,10.78
2019-04-21T14:08:34.285Z,11.10
2019-04-21T14:11:02.063Z,10.70
2019-04-21T14:13:30.307Z,10.30
2019-04-21T14:15:58.266Z,10.60
2019-04-21T14:18:28.967Z,10.43
2019-04-21T14:20:57.440Z,10.10
2019-04-21T14:23:32.478Z,10.53
2019-04-21T14:25:57.266Z,10.10
2019-04-21T14:28:26.053Z,10.28
2019-04-21T14:30:56.483Z,11.57
2019-04-21T14:33:25.738Z,11.10
2019-04-21T14:35:54.746Z,9.95
2019-04-21T14:38:22.794Z,9.83
2019-04-21T14:40:52.409Z,10.98
2019-04-21T14:43:20.439Z,10.70
2019-04-21T14:45:58.976Z,9.93
2019-04-21T14:49:05.445Z,9.95
2019-04-21T14:51:45.491Z,9.70
2019-04-21T14:54:33.190Z,9.03
2019-04-21T14:57:01.043Z,9.10
2019-04-21T14:59:28.994Z,9.60
2019-04-21T15:01:57.844Z,9.88
2019-04-21T15:04:25.785Z,9.20
2019-04-21T15:06:57.048Z,10.10
2019-04-21T15:09:25.290Z,10.45
2019-04-21T15:11:53.906Z,9.48
2019-04-21T15:14:22.365Z,9.83
2019-04-21T15:16:51.131Z,9.20
2019-04-21T15:19:18.707Z,8.95
2019-04-21T15:21:46.203Z,8.75
2019-04-21T15:24:14.267Z,9.10
2019-04-21T15:26:42.125Z,8.90
2019-04-21T15:29:10.799Z,9.43
2019-04-21T15:31:42.600Z,8.95
2019-04-21T15:34:10.974Z,8.73
2019-04-21T15:36:39.971Z,8.18
2019-04-21T15:39:09.957Z,7.92
2019-04-21T15:41:38.563Z,9.15
2019-04-21T15:44:08.292Z,8.68
2019-04-21T15:46:37.512Z,8.70
2019-04-21T15:49:05.125Z,8.25
2019-04-21T15:51:33.744Z,8.18
2019-04-21T15:54:02.622Z,8.20
2019-04-21T15:56:36.416Z,11.65
2019-04-21T15:59:30.488Z,8.93
2019-04-21T16:02:20.311Z,9.23
2019-04-21T16:04:48.685Z,8.43
2019-04-21T16:07:18.053Z,7.97
2019-04-21T16:09:46.102Z,9.50
2019-04-21T16:12:13.735Z,8.05
2019-04-21T16:14:44.694Z,9.13
2019-04-21T16:17:15.168Z,8.30
2019-04-21T16:19:43.849Z,7.60
2019-04-21T16:22:13.006Z,7.72
2019-04-21T16:24:42.063Z,7.42
2019-04-21T16:27:12.714Z,9.00
2019-04-21T16:29:41.697Z,8.03
2019-04-21T16:32:09.243Z,7.55
2019-04-21T16:34:45.335Z,7.75
2019-04-21T16:37:07.690Z,6.90
2019-04-21T16:39:35.574Z,7.50
2019-04-21T16:42:03.265Z,7.20
2019-04-21T16:44:34.683Z,7.87
2019-04-21T16:47:05.420Z,7.80
2019-04-21T16:49:37.959Z,7.28
2019-04-21T16:52:18.262Z,7.17
2019-04-21T16:54:49.690Z,6.45
2019-04-21T16:57:39.862Z,6.25
2019-04-21T17:00:10.853Z,10.90
2019-04-21T17:02:38.888Z,7.60
2019-04-21T17:05:07.280Z,7.00
2019-04-21T17:07:34.789Z,7.70
2019-04-21T17:10:04.653Z,7.53
2019-04-21T17:12:33.027Z,7.28
2019-04-21T17:15:18.817Z,8.20
2019-04-21T17:17:56.787Z,7.75
2019-04-21T17:20:17.209Z,6.78
2019-04-21T17:22:33.608Z,7.95
2019-04-21T17:25:02.535Z,6.58
2019-04-21T17:27:31.196Z,6.87
2019-04-21T17:29:59.012Z,6.55
2019-04-21T17:32:33.673Z,6.42
2019-04-21T17:34:56.227Z,6.58
2019-04-21T17:37:26.787Z,6.78
2019-04-21T17:39:54.523Z,6.60
2019-04-21T17:42:33.023Z,6.50
2019-04-21T17:44:53.053Z,7.67
2019-04-21T17:47:34.212Z,7.05
2019-04-21T17:50:11.698Z,7.60
2019-04-21T17:52:53.656Z,7.78
2019-04-21T17:55:27.334Z,7.35
2019-04-21T17:58:10.943Z,6.62
2019-04-21T18:01:06.555Z,7.15
2019-04-21T18:03:25.299Z,6.25
2019-04-21T18:05:42.018Z,5.97
2019-04-21T18:08:21.595Z,6.28
2019-04-21T18:10:42.246Z,6.72
2019-04-21T18:13:03.453Z,6.75
2019-04-21T18:15:42.422Z,6.22
2019-04-21T18:17:56.665Z,6.22
2019-04-21T18:20:28.046Z,6.17
2019-04-21T18:23:34.950Z,5.97
2019-04-21T18:26:01.962Z,5.80
2019-04-21T18:28:28.508Z,5.80
2019-04-21T18:31:02.369Z,5.85
2019-04-21T18:33:33.849Z,4.90
2019-04-21T18:36:31.715Z,6.03
2019-04-21T18:39:33.628Z,5.15
2019-04-21T18:42:17.176Z,5.25
2019-04-21T18:45:48.069Z,5.03
2019-04-21T18:48:39.834Z,5.10
2019-04-21T18:51:20.897Z,5.50
2019-04-21T18:54:22.695Z,4.97
2019-04-21T18:56:29.695Z,5.10
2019-04-21T18:58:58.336Z,5.50
2019-04-21T19:01:28.224Z,5.60
2019-04-21T19:03:56.160Z,5.08
2019-04-21T19:06:42.392Z,6.00
2019-04-21T19:09:10.171Z,5.47
2019-04-21T19:11:44.715Z,5.37
2019-04-21T19:16:53.912Z,5.58
2019-04-21T19:21:55.895Z,5.80
2019-04-21T19:24:48.926Z,5.83
2019-04-21T19:29:42.665Z,5.65
2019-04-21T19:31:59.925Z,5.85
2019-04-21T19:34:15.388Z,5.80
2019-04-21T19:36:46.680Z,6.47
2019-04-21T19:39:16.411Z,6.50
2019-04-21T19:41:52.035Z,5.83
2019-04-21T19:44:26.184Z,6.20
2019-04-21T19:46:58.690Z,6.47
2019-04-21T19:49:35.139Z,7.73
2019-04-21T19:51:50.398Z,8.23
2019-04-21T19:54:18.943Z,7.70
2019-04-21T19:56:38.623Z,7.70
2019-04-21T19:59:06.953Z,7.70
2019-04-21T20:01:37.228Z,6.73
2019-04-21T20:04:06.320Z,6.90
2019-04-21T20:06:47.693Z,7.40
2019-04-21T20:09:21.842Z,7.27
2019-04-21T20:11:52.351Z,6.87
2019-04-21T20:16:51.687Z,7.07
2019-04-21T20:19:11.753Z,7.37
2019-04-21T20:21:36.646Z,7.27
2019-04-21T20:24:10.794Z,6.70
2019-04-21T20:26:41.561Z,7.00
2019-04-21T20:29:20.696Z,7.63
2019-04-21T20:31:51.758Z,6.93
2019-04-21T20:34:28.362Z,6.47
2019-04-21T20:37:02.186Z,8.10
2019-04-21T20:39:21.290Z,6.80
2019-04-21T20:41:52.367Z,6.83
2019-04-21T20:44:29.874Z,7.50
2019-04-21T20:46:59.839Z,7.47
2019-04-21T20:49:26.303Z,7.63
2019-04-21T20:52:03.651Z,6.93
2019-04-21T20:54:30.094Z,7.03
2019-04-21T20:57:02.706Z,8.47
2019-04-21T20:59:25.112Z,7.40
2019-04-21T21:02:01.700Z,8.23
2019-04-21T21:04:21.646Z,7.77
2019-04-21T21:06:59.734Z,7.97
2019-04-21T21:09:24.093Z,8.27
2019-04-21T21:12:10.194Z,7.93
2019-04-21T21:14:27.926Z,8.00
2019-04-21T21:17:22.144Z,8.13
2019-04-21T21:19:29.071Z,7.57
2019-04-21T21:21:54.032Z,7.87
2019-04-21T21:24:33.053Z,7.37
2019-04-21T21:26:58.170Z,7.73
2019-04-21T21:29:29.224Z,8.27
2019-04-21T21:32:04.332Z,7.53
2019-04-21T21:34:31.049Z,8.33
2019-04-21T21:36:54.001Z,8.27
2019-04-21T21:39:31.717Z,8.63
2019-04-21T21:41:50.060Z,8.17
2019-04-21T21:44:18.286Z,8.47
2019-04-21T21:46:58.955Z,7.87
2019-04-21T21:49:28.177Z,7.50
2019-04-21T21:51:56.955Z,7.93
2019-04-21T21:54:15.878Z,8.00
2019-04-21T21:56:46.861Z,8.40
2019-04-21T21:59:20.642Z,8.23
2019-04-21T22:01:49.118Z,7.53
2019-04-21T22:04:23.869Z,7.30
2019-04-21T22:06:57.561Z,8.40
2019-04-21T22:09:16.629Z,8.50
2019-04-21T22:11:44.373Z,7.57
2019-04-21T22:14:22.875Z,7.97
2019-04-21T22:17:00.380Z,8.43
2019-04-21T22:19:32.500Z,8.90
2019-04-21T22:21:59.465Z,8.07
2019-04-21T22:24:28.627Z,7.93
2019-04-21T22:26:43.226Z,8.23
2019-04-21T22:29:11.799Z,7.70
2019-04-21T22:31:41.163Z,8.77
2019-04-21T22:34:13.197Z,7.83
2019-04-21T22:36:48.780Z,8.20
2019-04-21T22:39:29.703Z,8.07
2019-04-21T22:41:45.720Z,7.30
2019-04-21T22:44:16.451Z,8.63
2019-04-21T22:46:54.825Z,8.90
2019-04-21T22:49:14.580Z,8.27
2019-04-21T22:51:48.796Z,8.93
2019-04-21T22:54:22.236Z,8.60
2019-04-21T22:56:53.029Z,8.50
2019-04-21T22:59:19.645Z,8.23
2019-04-21T23:01:47.444Z,8.53
2019-04-21T23:04:13.868Z,8.70
2019-04-21T23:06:42.603Z,7.77
2019-04-21T23:09:11.047Z,8.50
2019-04-21T23:11:45.644Z,7.70
2019-04-21T23:14:13.435Z,7.47
2019-04-21T23:16:41.870Z,8.50
2019-04-21T23:19:23.689Z,7.73
2019-04-21T23:21:58.045Z,7.87
2019-04-21T23:24:31.610Z,9.03
2019-04-21T23:26:54.416Z,7.90
2019-04-21T23:29:39.477Z,8.37
2019-04-21T23:31:58.144Z,8.37
2019-04-21T23:34:13.449Z,8.50
2019-04-21T23:36:48.271Z,9.40
2019-04-21T23:39:17.015Z,8.17
2019-04-21T23:41:45.940Z,9.47
2019-04-21T23:44:13.654Z,8.80
2019-04-21T23:46:40.904Z,8.63
2019-04-21T23:49:22.836Z,9.10
2019-04-21T23:51:47.688Z,8.63
2019-04-21T23:54:11.264Z,9.77
2019-04-21T23:56:42.909Z,9.17
2019-04-21T23:59:12.521Z,9.20
